createdAt,value
2019-05-23T00:03:25.571Z,3.30
2019-05-23T00:09:14.686Z,3.13
2019-05-23T00:21:22.809Z,3.37
2019-05-23T00:27:16.406Z,3.80
2019-05-23T00:39:27.284Z,3.20
2019-05-23T00:42:17.032Z,3.70
2019-05-23T00:45:00.334Z,3.13
2019-05-23T00:47:51.908Z,3.40
2019-05-23T00:50:35.919Z,3.30
2019-05-23T00:56:20.081Z,3.30
2019-05-23T01:05:18.926Z,3.03
2019-05-23T01:07:50.606Z,3.03
2019-05-23T01:10:40.426Z,3.47
2019-05-23T01:13:24.343Z,3.20
2019-05-23T01:16:14.733Z,3.53
2019-05-23T01:18:57.407Z,3.13
2019-05-23T01:22:05.983Z,3.50
2019-05-23T01:24:51.102Z,3.30
2019-05-23T01:27:40.938Z,3.67
2019-05-23T01:30:28.258Z,3.53
2019-05-23T01:36:21.505Z,3.53
2019-05-23T01:42:09.493Z,3.40
2019-05-23T01:51:09.131Z,3.87
2019-05-23T01:56:54.141Z,3.83
2019-05-23T01:59:44.200Z,3.60
2019-05-23T02:05:31.036Z,3.90
2019-05-23T02:08:39.931Z,3.83
2019-05-23T02:11:23.000Z,3.97
2019-05-23T02:14:13.060Z,3.67
2019-05-23T02:16:56.119Z,4.20
2019-05-23T02:22:49.189Z,4.10
2019-05-23T02:28:44.229Z,3.70
2019-05-23T02:31:34.545Z,3.47
2019-05-23T02:34:17.122Z,4.23
2019-05-23T02:43:09.121Z,4.07
2019-05-23T02:49:01.205Z,4.30
2019-05-23T02:54:45.773Z,3.40
2019-05-23T03:00:54.735Z,3.40
2019-05-23T03:06:39.675Z,4.30
2019-05-23T03:12:46.386Z,4.27
2019-05-23T03:18:34.989Z,3.73
2019-05-23T03:21:19.586Z,4.00
2019-05-23T03:24:09.783Z,3.50
2019-05-23T03:27:18.870Z,3.90
2019-05-23T03:30:26.512Z,4.33
2019-05-23T03:33:09.700Z,4.80
2019-05-23T03:39:06.094Z,3.73
2019-05-23T03:45:00.641Z,4.33
2019-05-23T03:50:55.402Z,4.23
2019-05-23T03:53:45.509Z,4.13
2019-05-23T03:59:31.945Z,4.43
2019-05-23T04:08:24.608Z,4.60
2019-05-23T04:14:11.111Z,5.50
2019-05-23T04:17:20.479Z,5.17
2019-05-23T04:20:03.510Z,5.80
2019-05-23T04:22:53.250Z,5.80
2019-05-23T04:25:35.805Z,6.33
2019-05-23T04:28:25.718Z,5.50
2019-05-23T04:31:15.570Z,5.10
2019-05-23T04:37:02.493Z,5.10
2019-05-23T04:39:52.302Z,5.03
2019-05-23T04:42:35.050Z,5.20
2019-05-23T04:48:19.861Z,5.40
2019-05-23T04:54:14.663Z,5.80
2019-05-23T04:56:56.633Z,5.27
2019-05-23T04:59:46.538Z,5.27
2019-05-23T05:02:29.257Z,5.20
2019-05-23T05:08:12.869Z,5.30
2019-05-23T05:14:03.434Z,4.93
2019-05-23T05:16:53.254Z,7.40
2019-05-23T05:19:37.381Z,15.50
2019-05-23T05:22:27.462Z,16.03
2019-05-23T05:28:11.275Z,10.90
2019-05-23T05:31:01.057Z,5.53
2019-05-23T05:33:50.819Z,5.20
2019-05-23T05:36:40.740Z,5.00
2019-05-23T05:39:30.581Z,5.57
2019-05-23T05:42:20.656Z,5.73
2019-05-23T05:45:03.179Z,5.30
2019-05-23T05:50:49.358Z,5.60
2019-05-23T05:53:39.703Z,6.37
2019-05-23T05:56:21.818Z,7.10
2019-05-23T05:59:11.597Z,7.57
2019-05-23T06:01:55.221Z,7.80
2019-05-23T06:04:44.963Z,8.10
2019-05-23T06:10:36.716Z,9.63
2019-05-23T06:13:19.594Z,10.17
2019-05-23T06:16:28.892Z,10.00
2019-05-23T06:22:16.040Z,10.10
2019-05-23T06:28:22.304Z,11.17
2019-05-23T06:34:08.866Z,10.90
2019-05-23T06:39:54.042Z,11.03
2019-05-23T06:42:44.118Z,11.23
2019-05-23T06:45:28.511Z,11.10
2019-05-23T06:48:18.559Z,12.33
2019-05-23T06:51:22.613Z,12.83
2019-05-23T06:54:05.074Z,12.30
2019-05-23T06:56:54.800Z,12.87
2019-05-23T06:59:36.786Z,12.67
2019-05-23T07:05:44.303Z,12.77
2019-05-23T07:11:29.829Z,12.30
2019-05-23T07:14:19.704Z,13.47
2019-05-23T07:20:06.178Z,13.40
2019-05-23T07:22:56.201Z,12.83
2019-05-23T07:25:39.120Z,14.13
2019-05-23T07:28:29.195Z,14.63
2019-05-23T07:31:12.155Z,13.93
2019-05-23T07:36:57.558Z,14.80
2019-05-23T07:46:02.794Z,13.70
2019-05-23T07:48:47.031Z,13.27
2019-05-23T07:51:30.243Z,13.57
2019-05-23T07:54:38.785Z,14.10
2019-05-23T07:57:21.046Z,12.67
2019-05-23T08:03:35.175Z,11.33
2019-05-23T08:06:24.896Z,11.53
2019-05-23T08:09:08.340Z,11.10
2019-05-23T08:14:53.211Z,11.13
2019-05-23T08:17:43.317Z,10.53
2019-05-23T08:29:51.402Z,11.30
2019-05-23T08:32:41.212Z,11.03
2019-05-23T08:35:23.329Z,10.63
2019-05-23T08:38:13.453Z,10.57
2019-05-23T08:40:57.155Z,10.47
2019-05-23T08:46:47.907Z,9.73
2019-05-23T08:52:34.101Z,10.57
2019-05-23T08:58:38.179Z,10.70
2019-05-23T09:01:28.103Z,9.97
2019-05-23T09:07:14.633Z,7.20
2019-05-23T09:10:05.010Z,7.30
2019-05-23T09:12:47.713Z,6.93
2019-05-23T09:15:56.822Z,7.63
2019-05-23T09:18:39.203Z,5.60
2019-05-23T09:21:28.947Z,6.30
2019-05-23T09:24:11.602Z,7.20
2019-05-23T09:27:01.542Z,7.50
2019-05-23T09:32:56.872Z,8.97
2019-05-23T09:35:46.850Z,14.57
2019-05-23T09:38:36.698Z,6.50
2019-05-23T09:41:26.543Z,6.63
2019-05-23T09:47:10.804Z,7.67
2019-05-23T09:55:50.238Z,7.93
2019-05-23T09:58:33.334Z,7.37
2019-05-23T10:04:17.253Z,6.87
2019-05-23T10:16:13.652Z,7.17
2019-05-23T10:19:03.359Z,7.00
2019-05-23T10:21:45.324Z,7.00
2019-05-23T10:24:35.278Z,7.67
2019-05-23T10:27:18.998Z,7.78
2019-05-23T10:33:12.110Z,7.45
2019-05-23T10:36:00.320Z,7.67
2019-05-23T10:38:43.881Z,7.25
2019-05-23T10:41:33.627Z,7.45
2019-05-23T10:44:16.111Z,6.92
2019-05-23T10:47:22.794Z,6.95
2019-05-23T10:50:08.798Z,7.10
2019-05-23T10:52:58.791Z,6.17
2019-05-23T10:55:41.483Z,6.80
2019-05-23T11:01:35.275Z,7.03
2019-05-23T11:04:25.558Z,7.10
2019-05-23T11:07:10.723Z,7.50
2019-05-23T11:10:00.447Z,6.78
2019-05-23T11:12:42.893Z,6.47
2019-05-23T11:18:36.852Z,5.65
2019-05-23T11:21:26.885Z,5.60
2019-05-23T11:24:09.315Z,5.90
2019-05-23T11:26:59.055Z,5.70
2019-05-23T11:29:45.577Z,5.60
2019-05-23T11:32:35.498Z,5.25
2019-05-23T11:38:23.579Z,4.60
2019-05-23T11:41:06.740Z,5.05
2019-05-23T11:43:57.047Z,5.25
2019-05-23T11:46:47.037Z,4.80
2019-05-23T11:49:49.057Z,5.08
2019-05-23T11:52:31.571Z,4.85
2019-05-23T11:58:26.199Z,4.72
2019-05-23T12:01:55.385Z,4.17
2019-05-23T12:04:30.478Z,3.95
2019-05-23T12:07:39.973Z,4.60
2019-05-23T12:10:23.478Z,4.33
2019-05-23T12:13:06.682Z,4.95
2019-05-23T12:15:57.141Z,4.45
2019-05-23T12:18:47.411Z,4.35
2019-05-23T12:21:37.753Z,4.60
2019-05-23T12:24:20.704Z,4.78
2019-05-23T12:27:11.117Z,3.90
2019-05-23T12:29:53.969Z,4.33
2019-05-23T12:32:44.229Z,4.45
2019-05-23T12:35:27.337Z,3.92
2019-05-23T12:38:17.808Z,3.35
2019-05-23T12:41:01.727Z,3.37
2019-05-23T12:43:52.057Z,4.22
2019-05-23T12:46:35.423Z,3.70
2019-05-23T12:52:32.932Z,3.95
2019-05-23T12:55:23.238Z,3.90
2019-05-23T12:58:06.206Z,5.00
2019-05-23T13:04:01.062Z,4.90
2019-05-23T13:06:51.757Z,4.37
2019-05-23T13:09:35.461Z,4.50
2019-05-23T13:12:25.946Z,3.98
2019-05-23T13:15:09.087Z,4.17
2019-05-23T13:17:59.393Z,4.58
2019-05-23T13:20:42.153Z,4.50
2019-05-23T13:23:32.406Z,4.75
2019-05-23T13:26:17.682Z,4.30
2019-05-23T13:29:07.956Z,4.42
2019-05-23T13:34:55.351Z,3.80
2019-05-23T13:40:41.415Z,3.55
2019-05-23T13:46:26.262Z,3.92
2019-05-23T13:49:16.896Z,4.22
2019-05-23T13:52:07.335Z,3.17
2019-05-23T13:54:57.673Z,3.85
2019-05-23T13:57:48.004Z,3.35
2019-05-23T14:03:44.642Z,3.92
2019-05-23T14:09:16.536Z,3.77
2019-05-23T14:15:04.428Z,4.30
2019-05-23T14:17:48.077Z,3.85
2019-05-23T14:20:57.636Z,4.30
2019-05-23T14:23:48.158Z,3.75
2019-05-23T14:29:35.299Z,3.52
2019-05-23T14:32:44.487Z,3.45
2019-05-23T14:38:34.143Z,3.62
2019-05-23T14:44:28.121Z,3.27
2019-05-23T14:47:37.424Z,3.12
2019-05-23T14:50:39.959Z,3.50
2019-05-23T14:53:25.639Z,3.72
2019-05-23T14:59:13.260Z,3.42
2019-05-23T15:05:07.184Z,3.27
2019-05-23T15:07:38.416Z,2.98
2019-05-23T15:10:11.207Z,3.77
2019-05-23T15:12:42.463Z,3.50
2019-05-23T15:15:15.372Z,3.67
2019-05-23T15:17:46.585Z,3.30
2019-05-23T15:20:17.987Z,3.47
2019-05-23T15:22:49.205Z,3.17
2019-05-23T15:25:21.424Z,2.87
2019-05-23T15:27:53.203Z,2.77
2019-05-23T15:30:24.501Z,4.05
2019-05-23T15:32:55.757Z,3.10
2019-05-23T15:35:28.138Z,2.75
2019-05-23T15:37:59.451Z,4.15
2019-05-23T15:40:31.756Z,2.70
2019-05-23T15:43:02.995Z,2.87
2019-05-23T15:45:34.241Z,3.25
2019-05-23T15:48:05.505Z,3.70
2019-05-23T15:50:42.268Z,3.47
2019-05-23T15:53:20.431Z,3.15
2019-05-23T15:55:59.085Z,3.10
2019-05-23T15:58:39.004Z,3.20
2019-05-23T16:01:16.437Z,2.98
2019-05-23T16:03:50.623Z,3.08
2019-05-23T16:06:23.926Z,2.80
2019-05-23T16:08:55.283Z,3.40
2019-05-23T16:11:26.562Z,2.60
2019-05-23T16:13:58.025Z,2.60
2019-05-23T16:16:29.418Z,2.50
2019-05-23T16:19:00.664Z,2.62
2019-05-23T16:21:32.943Z,2.80
2019-05-23T16:24:05.436Z,2.40
2019-05-23T16:26:36.795Z,2.42
2019-05-23T16:29:09.721Z,2.40
2019-05-23T16:31:41.102Z,2.40
2019-05-23T16:34:12.634Z,2.67
2019-05-23T16:36:43.846Z,2.42
2019-05-23T16:39:15.101Z,2.40
2019-05-23T16:41:46.816Z,2.50
2019-05-23T16:44:18.107Z,2.25
2019-05-23T16:46:49.510Z,2.27
2019-05-23T16:49:21.110Z,2.50
2019-05-23T16:51:52.654Z,2.60
2019-05-23T16:54:28.453Z,2.60
2019-05-23T16:57:15.455Z,2.30
2019-05-23T17:00:08.612Z,1.90
2019-05-23T17:02:50.308Z,2.27
2019-05-23T17:05:41.226Z,2.02
2019-05-23T17:08:33.856Z,2.15
2019-05-23T17:11:17.572Z,2.20
2019-05-23T17:13:52.689Z,2.10
2019-05-23T17:16:33.170Z,2.22
2019-05-23T17:19:12.920Z,2.30
2019-05-23T17:21:51.007Z,2.10
2019-05-23T17:24:40.278Z,2.50
2019-05-23T17:27:29.140Z,2.08
2019-05-23T17:30:21.400Z,1.87
2019-05-23T17:32:53.007Z,2.33
2019-05-23T17:35:24.333Z,2.22
2019-05-23T17:37:54.951Z,2.30
2019-05-23T17:40:26.270Z,2.25
2019-05-23T17:42:57.679Z,1.95
2019-05-23T17:45:29.343Z,2.40
2019-05-23T17:48:00.682Z,2.27
2019-05-23T17:50:34.671Z,2.22
2019-05-23T17:53:05.297Z,2.83
2019-05-23T17:55:36.082Z,2.67
2019-05-23T17:58:06.822Z,2.30
2019-05-23T18:00:40.352Z,2.37
2019-05-23T18:03:11.606Z,2.58
2019-05-23T18:05:43.033Z,2.40
2019-05-23T18:08:15.155Z,2.12
2019-05-23T18:10:46.393Z,2.80
2019-05-23T18:13:18.080Z,2.75
2019-05-23T18:15:48.768Z,2.90
2019-05-23T18:18:19.564Z,2.70
2019-05-23T18:20:50.431Z,2.52
2019-05-23T18:23:21.989Z,2.37
2019-05-23T18:25:52.642Z,2.17
2019-05-23T18:28:24.137Z,2.15
2019-05-23T18:30:58.920Z,2.50
2019-05-23T18:33:29.918Z,2.10
2019-05-23T18:36:01.043Z,2.25
2019-05-23T18:38:32.147Z,2.22
2019-05-23T18:41:08.716Z,2.35
2019-05-23T18:43:37.074Z,2.10
2019-05-23T18:46:12.138Z,2.22
2019-05-23T18:48:43.003Z,2.37
2019-05-23T18:51:13.733Z,1.65
2019-05-23T18:53:44.576Z,2.05
2019-05-23T18:56:16.185Z,1.80
2019-05-23T18:58:47.016Z,1.82
2019-05-23T19:01:20.146Z,2.02
2019-05-23T19:03:51.749Z,2.15
2019-05-23T19:06:22.856Z,2.00
2019-05-23T19:08:53.619Z,2.00
2019-05-23T19:11:24.880Z,2.08
2019-05-23T19:13:56.094Z,2.05
2019-05-23T19:16:28.489Z,2.00
2019-05-23T19:19:00.371Z,2.12
2019-05-23T19:21:33.202Z,2.05
2019-05-23T19:24:04.829Z,2.22
2019-05-23T19:26:36.689Z,1.80
2019-05-23T19:29:08.294Z,2.00
2019-05-23T19:31:39.425Z,1.80
2019-05-23T19:34:10.681Z,2.02
2019-05-23T19:36:41.703Z,2.20
2019-05-23T19:39:13.176Z,2.50
2019-05-23T19:41:43.880Z,2.60
2019-05-23T19:44:14.662Z,2.10
2019-05-23T19:46:45.530Z,2.50
2019-05-23T19:49:17.722Z,2.27
2019-05-23T19:51:48.491Z,2.30
2019-05-23T19:54:21.002Z,2.30
2019-05-23T19:56:52.398Z,2.60
2019-05-23T19:59:23.150Z,2.53
2019-05-23T20:02:21.946Z,3.03
2019-05-23T20:04:59.209Z,3.20
2019-05-23T20:07:30.086Z,3.30
2019-05-23T20:10:01.534Z,3.30
2019-05-23T20:12:32.282Z,3.17
2019-05-23T20:15:02.985Z,3.70
2019-05-23T20:17:33.730Z,3.40
2019-05-23T20:20:04.427Z,3.47
2019-05-23T20:22:35.236Z,3.73
2019-05-23T20:25:07.968Z,3.60
2019-05-23T20:27:38.646Z,2.73
2019-05-23T20:30:11.660Z,3.10
2019-05-23T20:32:42.545Z,3.30
2019-05-23T20:35:13.361Z,3.00
2019-05-23T20:37:44.325Z,3.30
2019-05-23T20:40:15.663Z,3.07
2019-05-23T20:42:46.281Z,3.20
2019-05-23T20:45:16.934Z,3.07
2019-05-23T20:47:47.561Z,3.30
2019-05-23T20:50:18.375Z,2.60
2019-05-23T20:52:49.024Z,2.93
2019-05-23T20:55:19.683Z,2.70
2019-05-23T20:57:50.318Z,3.20
2019-05-23T21:00:27.694Z,3.00
2019-05-23T21:02:58.628Z,2.97
2019-05-23T21:05:29.573Z,3.30
2019-05-23T21:08:00.217Z,3.20
2019-05-23T21:10:48.902Z,3.50
2019-05-23T21:13:21.215Z,3.30
2019-05-23T21:15:52.780Z,3.10
2019-05-23T21:18:23.387Z,3.10
2019-05-23T21:20:54.181Z,3.03
2019-05-23T21:23:24.813Z,3.40
2019-05-23T21:26:02.337Z,3.97
2019-05-23T21:28:32.979Z,3.67
2019-05-23T21:31:05.179Z,3.53
2019-05-23T21:33:35.881Z,4.00
2019-05-23T21:36:06.848Z,3.50
2019-05-23T21:38:37.746Z,3.60
2019-05-23T21:41:08.419Z,3.77
2019-05-23T21:43:41.192Z,3.27
2019-05-23T21:46:12.007Z,4.00
2019-05-23T21:48:42.663Z,3.73
2019-05-23T21:51:13.581Z,4.00
2019-05-23T21:53:44.528Z,3.93
2019-05-23T21:56:15.192Z,3.63
2019-05-23T21:58:46.095Z,3.50
2019-05-23T22:01:38.323Z,3.40
2019-05-23T22:04:46.139Z,3.60
2019-05-23T22:07:16.967Z,3.37
2019-05-23T22:09:47.595Z,3.97
2019-05-23T22:12:18.368Z,3.67
2019-05-23T22:14:49.281Z,3.70
2019-05-23T22:17:21.645Z,3.40
2019-05-23T22:19:52.889Z,4.60
2019-05-23T22:22:24.212Z,4.30
2019-05-23T22:24:54.855Z,3.93
2019-05-23T22:27:25.816Z,3.63
2019-05-23T22:29:56.812Z,3.60
2019-05-23T22:32:28.711Z,3.90
2019-05-23T22:35:04.533Z,3.90
2019-05-23T22:37:35.148Z,4.20
2019-05-23T22:40:06.756Z,3.90
2019-05-23T22:42:37.585Z,4.10
2019-05-23T22:45:12.882Z,4.10
2019-05-23T22:47:43.704Z,3.70
2019-05-23T22:50:14.552Z,3.90
2019-05-23T22:52:45.275Z,4.37
2019-05-23T22:55:15.914Z,4.20
2019-05-23T22:57:46.625Z,3.57
2019-05-23T23:00:21.024Z,4.37
2019-05-23T23:02:51.649Z,4.53
2019-05-23T23:05:22.286Z,3.93
2019-05-23T23:07:52.930Z,4.00
2019-05-23T23:10:23.559Z,4.53
2019-05-23T23:12:54.208Z,4.03
2019-05-23T23:15:26.270Z,5.03
2019-05-23T23:17:56.893Z,4.00
2019-05-23T23:20:27.530Z,3.90
2019-05-23T23:22:58.155Z,4.60
2019-05-23T23:25:29.254Z,4.43
2019-05-23T23:27:59.919Z,4.20
2019-05-23T23:30:33.942Z,4.30
2019-05-23T23:33:04.628Z,4.07
2019-05-23T23:35:35.586Z,4.60
2019-05-23T23:38:06.554Z,3.87
2019-05-23T23:40:37.338Z,4.03
2019-05-23T23:43:08.008Z,4.73
2019-05-23T23:45:56.172Z,4.30
2019-05-23T23:48:44.153Z,4.23
2019-05-23T23:51:32.178Z,4.23
2019-05-23T23:54:20.420Z,4.10
2019-05-23T23:57:08.605Z,4.40
2019-05-23T23:59:38.221Z,4.60
